sensor_id;sensor_type;location;lat;lon;timestamp;temperature;humidity
51011;DHT22;37038;50.182;8.624;2024-02-26T00:00:14;7.50;1.00
51011;DHT22;37038;50.182;8.624;2024-02-26T00:03:28;7.50;15.10
51011;DHT22;37038;50.182;8.624;2024-02-26T00:12:16;7.60;1.00
51011;DHT22;37038;50.182;8.624;2024-02-26T00:41:41;7.50;1.00
51011;DHT22;37038;50.182;8.624;2024-02-26T00:44:50;7.30;99.90
51011;DHT22;37038;50.182;8.624;2024-02-26T00:47:49;7.20;99.90
51011;DHT22;37038;50.182;8.624;2024-02-26T00:51:23;7.00;1.00
51011;DHT22;37038;50.182;8.624;2024-02-26T00:54:44;7.00;1.00
51011;DHT22;37038;50.182;8.624;2024-02-26T00:57:52;7.00;1.00
51011;DHT22;37038;50.182;8.624;2024-02-26T01:00:56;7.10;99.90
51011;DHT22;37038;50.182;8.624;2024-02-26T01:07:48;7.40;99.90
51011;DHT22;37038;50.182;8.624;2024-02-26T01:11:00;7.30;99.90
51011;DHT22;37038;50.182;8.624;2024-02-26T01:17:34;7.40;99.90
51011;DHT22;37038;50.182;8.624;2024-02-26T01:21:07;7.20;99.90
51011;DHT22;37038;50.182;8.624;2024-02-26T01:24:31;7.10;1.00
51011;DHT22;37038;50.182;8.624;2024-02-26T01:27:33;7.20;1.00
51011;DHT22;37038;50.182;8.624;2024-02-26T01:31:09;7.10;1.00
51011;DHT22;37038;50.182;8.624;2024-02-26T01:34:10;7.00;1.00
51011;DHT22;37038;50.182;8.624;2024-02-26T01:40:19;6.90;1.00
51011;DHT22;37038;50.182;8.624;2024-02-26T01:47:05;7.20;99.90
51011;DHT22;37038;50.182;8.624;2024-02-26T01:50:10;7.20;99.90
51011;DHT22;37038;50.182;8.624;2024-02-26T01:53:27;7.00;99.90
51011;DHT22;37038;50.182;8.624;2024-02-26T01:56:46;7.10;99.90
51011;DHT22;37038;50.182;8.624;2024-02-26T02:00:01;7.20;99.90
51011;DHT22;37038;50.182;8.624;2024-02-26T02:03:21;7.10;99.90
51011;DHT22;37038;50.182;8.624;2024-02-26T02:06:23;7.20;99.90
51011;DHT22;37038;50.182;8.624;2024-02-26T02:09:24;7.30;99.90
51011;DHT22;37038;50.182;8.624;2024-02-26T02:12:47;7.20;99.90
51011;DHT22;37038;50.182;8.624;2024-02-26T02:16:09;7.30;99.90
51011;DHT22;37038;50.182;8.624;2024-02-26T02:19:25;7.30;99.90
51011;DHT22;37038;50.182;8.624;2024-02-26T02:22:31;7.40;99.90
51011;DHT22;37038;50.182;8.624;2024-02-26T02:25:38;7.30;99.90
51011;DHT22;37038;50.182;8.624;2024-02-26T02:28:33;7.30;99.90
51011;DHT22;37038;50.182;8.624;2024-02-26T02:31:39;7.40;99.90
51011;DHT22;37038;50.182;8.624;2024-02-26T02:34:54;7.20;99.90
51011;DHT22;37038;50.182;8.624;2024-02-26T02:38:04;7.10;99.90
51011;DHT22;37038;50.182;8.624;2024-02-26T02:41:13;6.80;99.90
51011;DHT22;37038;50.182;8.624;2024-02-26T02:44:33;6.50;99.90
51011;DHT22;37038;50.182;8.624;2024-02-26T02:50:22;7.00;99.90
51011;DHT22;37038;50.182;8.624;2024-02-26T02:53:16;7.20;59.10
51011;DHT22;37038;50.182;8.624;2024-02-26T02:56:32;7.30;1.00
51011;DHT22;37038;50.182;8.624;2024-02-26T02:59:27;7.10;1.00
51011;DHT22;37038;50.182;8.624;2024-02-26T03:02:23;7.30;1.00
51011;DHT22;37038;50.182;8.624;2024-02-26T03:05:19;7.50;99.90
51011;DHT22;37038;50.182;8.624;2024-02-26T03:08:20;7.70;99.90
51011;DHT22;37038;50.182;8.624;2024-02-26T03:11:13;7.60;1.00
51011;DHT22;37038;50.182;8.624;2024-02-26T03:14:14;7.80;99.90
51011;DHT22;37038;50.182;8.624;2024-02-26T03:17:10;7.90;99.90
51011;DHT22;37038;50.182;8.624;2024-02-26T03:20:04;7.70;99.90
51011;DHT22;37038;50.182;8.624;2024-02-26T03:23:03;7.60;99.90
51011;DHT22;37038;50.182;8.624;2024-02-26T03:26:34;7.80;99.90
51011;DHT22;37038;50.182;8.624;2024-02-26T03:29:30;7.90;99.90
51011;DHT22;37038;50.182;8.624;2024-02-26T03:33:00;7.10;1.00
51011;DHT22;37038;50.182;8.624;2024-02-26T03:36:14;7.50;1.00
51011;DHT22;37038;50.182;8.624;2024-02-26T03:39:28;7.50;99.90
51011;DHT22;37038;50.182;8.624;2024-02-26T03:42:32;7.60;99.90
51011;DHT22;37038;50.182;8.624;2024-02-26T03:45:30;7.80;99.90
51011;DHT22;37038;50.182;8.624;2024-02-26T03:48:34;8.00;99.90
51011;DHT22;37038;50.182;8.624;2024-02-26T03:51:42;8.00;99.90
51011;DHT22;37038;50.182;8.624;2024-02-26T03:54:34;8.20;99.90
51011;DHT22;37038;50.182;8.624;2024-02-26T03:57:36;8.10;99.90
51011;DHT22;37038;50.182;8.624;2024-02-26T04:00:33;7.70;82.00
51011;DHT22;37038;50.182;8.624;2024-02-26T04:03:34;7.00;1.00
51011;DHT22;37038;50.182;8.624;2024-02-26T04:06:31;7.10;99.90
51011;DHT22;37038;50.182;8.624;2024-02-26T04:09:26;7.30;1.00
51011;DHT22;37038;50.182;8.624;2024-02-26T04:12:26;7.40;1.00
51011;DHT22;37038;50.182;8.624;2024-02-26T04:15:26;7.10;99.90
51011;DHT22;37038;50.182;8.624;2024-02-26T04:18:20;7.40;99.90
51011;DHT22;37038;50.182;8.624;2024-02-26T04:21:30;7.60;1.00
51011;DHT22;37038;50.182;8.624;2024-02-26T04:24:24;7.80;99.90
51011;DHT22;37038;50.182;8.624;2024-02-26T04:27:24;7.90;99.90
51011;DHT22;37038;50.182;8.624;2024-02-26T04:30:16;8.00;99.90
51011;DHT22;37038;50.182;8.624;2024-02-26T04:33:16;8.40;1.00
51011;DHT22;37038;50.182;8.624;2024-02-26T04:36:12;8.20;99.90
51011;DHT22;37038;50.182;8.624;2024-02-26T04:39:08;8.30;99.90
51011;DHT22;37038;50.182;8.624;2024-02-26T04:42:10;8.10;74.60
51011;DHT22;37038;50.182;8.624;2024-02-26T04:45:10;8.20;99.90
51011;DHT22;37038;50.182;8.624;2024-02-26T04:47:59;8.10;99.90
51011;DHT22;37038;50.182;8.624;2024-02-26T04:50:50;8.10;99.90
51011;DHT22;37038;50.182;8.624;2024-02-26T04:53:50;7.80;1.00
51011;DHT22;37038;50.182;8.624;2024-02-26T04:56:49;8.10;1.00
51011;DHT22;37038;50.182;8.624;2024-02-26T04:59:42;8.10;99.90
51011;DHT22;37038;50.182;8.624;2024-02-26T05:02:30;8.00;1.00
51011;DHT22;37038;50.182;8.624;2024-02-26T05:05:32;8.10;1.00
51011;DHT22;37038;50.182;8.624;2024-02-26T05:08:37;8.10;99.90
51011;DHT22;37038;50.182;8.624;2024-02-26T05:11:41;7.70;1.00
51011;DHT22;37038;50.182;8.624;2024-02-26T05:14:40;7.80;99.90
51011;DHT22;37038;50.182;8.624;2024-02-26T05:17:39;7.40;1.00
51011;DHT22;37038;50.182;8.624;2024-02-26T05:20:39;7.60;1.00
51011;DHT22;37038;50.182;8.624;2024-02-26T05:23:36;7.30;99.90
51011;DHT22;37038;50.182;8.624;2024-02-26T05:26:33;7.40;91.10
51011;DHT22;37038;50.182;8.624;2024-02-26T05:29:33;7.40;1.00
51011;DHT22;37038;50.182;8.624;2024-02-26T05:32:24;7.70;99.90
51011;DHT22;37038;50.182;8.624;2024-02-26T05:35:21;7.50;99.90
51011;DHT22;37038;50.182;8.624;2024-02-26T05:38:16;7.60;99.90
51011;DHT22;37038;50.182;8.624;2024-02-26T05:41:05;7.70;1.00
51011;DHT22;37038;50.182;8.624;2024-02-26T05:44:03;7.60;99.90
51011;DHT22;37038;50.182;8.624;2024-02-26T05:46:52;7.40;99.90
51011;DHT22;37038;50.182;8.624;2024-02-26T05:49:45;7.50;1.00
51011;DHT22;37038;50.182;8.624;2024-02-26T05:52:37;7.60;1.00
51011;DHT22;37038;50.182;8.624;2024-02-26T05:55:29;7.60;99.90
51011;DHT22;37038;50.182;8.624;2024-02-26T05:58:17;7.60;1.00
51011;DHT22;37038;50.182;8.624;2024-02-26T06:01:20;7.60;6.90
51011;DHT22;37038;50.182;8.624;2024-02-26T06:04:26;7.60;1.00
51011;DHT22;37038;50.182;8.624;2024-02-26T06:07:17;7.60;1.00
51011;DHT22;37038;50.182;8.624;2024-02-26T06:10:20;7.70;1.00
51011;DHT22;37038;50.182;8.624;2024-02-26T06:13:09;7.70;1.00
51011;DHT22;37038;50.182;8.624;2024-02-26T06:16:01;7.70;99.90
51011;DHT22;37038;50.182;8.624;2024-02-26T06:18:58;7.70;99.90
51011;DHT22;37038;50.182;8.624;2024-02-26T06:21:54;7.60;99.90
51011;DHT22;37038;50.182;8.624;2024-02-26T06:24:53;7.50;99.90
51011;DHT22;37038;50.182;8.624;2024-02-26T06:27:57;7.50;99.90
51011;DHT22;37038;50.182;8.624;2024-02-26T06:30:59;7.60;1.00
51011;DHT22;37038;50.182;8.624;2024-02-26T06:34:06;7.50;1.00
51011;DHT22;37038;50.182;8.624;2024-02-26T06:37:32;7.60;99.90
51011;DHT22;37038;50.182;8.624;2024-02-26T06:40:52;7.40;1.00
51011;DHT22;37038;50.182;8.624;2024-02-26T06:43:53;7.40;1.00
51011;DHT22;37038;50.182;8.624;2024-02-26T06:47:22;7.30;1.00
51011;DHT22;37038;50.182;8.624;2024-02-26T06:50:42;7.50;1.00
51011;DHT22;37038;50.182;8.624;2024-02-26T07:02:05;7.30;1.00
51011;DHT22;37038;50.182;8.624;2024-02-26T07:05:53;7.20;99.90
51011;DHT22;37038;50.182;8.624;2024-02-26T07:13:25;7.40;1.00
51011;DHT22;37038;50.182;8.624;2024-02-26T07:17:07;7.40;99.90
51011;DHT22;37038;50.182;8.624;2024-02-26T07:20:39;7.40;80.40
51011;DHT22;37038;50.182;8.624;2024-02-26T07:42:38;7.30;99.90
51011;DHT22;37038;50.182;8.624;2024-02-26T07:45:39;7.20;1.00
51011;DHT22;37038;50.182;8.624;2024-02-26T07:49:07;7.20;1.00
51011;DHT22;37038;50.182;8.624;2024-02-26T07:52:42;7.10;1.00
51011;DHT22;37038;50.182;8.624;2024-02-26T07:55:54;7.40;1.00
51011;DHT22;37038;50.182;8.624;2024-02-26T07:59:22;7.50;99.90
51011;DHT22;37038;50.182;8.624;2024-02-26T08:02:39;7.30;1.00
51011;DHT22;37038;50.182;8.624;2024-02-26T08:06:23;7.40;99.90
51011;DHT22;37038;50.182;8.624;2024-02-26T08:10:26;7.20;1.00
51011;DHT22;37038;50.182;8.624;2024-02-26T08:20:20;7.70;99.90
51011;DHT22;37038;50.182;8.624;2024-02-26T08:40:22;7.90;99.90
51011;DHT22;37038;50.182;8.624;2024-02-26T08:44:14;7.90;99.90
51011;DHT22;37038;50.182;8.624;2024-02-26T08:47:47;7.90;99.90
51011;DHT22;37038;50.182;8.624;2024-02-26T08:51:40;7.80;99.90
51011;DHT22;37038;50.182;8.624;2024-02-26T09:17:29;7.40;1.00
51011;DHT22;37038;50.182;8.624;2024-02-26T09:24:33;7.70;99.90
51011;DHT22;37038;50.182;8.624;2024-02-26T09:57:00;8.90;99.90
51011;DHT22;37038;50.182;8.624;2024-02-26T10:00:46;8.90;1.00
51011;DHT22;37038;50.182;8.624;2024-02-26T10:16:53;9.30;1.00
51011;DHT22;37038;50.182;8.624;2024-02-26T10:20:58;9.20;99.90
51011;DHT22;37038;50.182;8.624;2024-02-26T10:39:17;9.70;99.90
51011;DHT22;37038;50.182;8.624;2024-02-26T10:42:15;9.20;99.90
51011;DHT22;37038;50.182;8.624;2024-02-26T10:46:05;9.30;1.00
51011;DHT22;37038;50.182;8.624;2024-02-26T10:52:45;9.30;1.00
51011;DHT22;37038;50.182;8.624;2024-02-26T10:55:50;9.70;90.60
51011;DHT22;37038;50.182;8.624;2024-02-26T10:59:13;9.90;1.00
51011;DHT22;37038;50.182;8.624;2024-02-26T11:02:28;10.10;1.00
51011;DHT22;37038;50.182;8.624;2024-02-26T11:05:55;9.90;99.90
51011;DHT22;37038;50.182;8.624;2024-02-26T11:09:04;10.00;16.30
51011;DHT22;37038;50.182;8.624;2024-02-26T11:12:06;10.00;99.90
51011;DHT22;37038;50.182;8.624;2024-02-26T11:15:23;10.00;1.00
51011;DHT22;37038;50.182;8.624;2024-02-26T11:18:41;10.20;1.00
51011;DHT22;37038;50.182;8.624;2024-02-26T11:21:54;10.10;99.90
51011;DHT22;37038;50.182;8.624;2024-02-26T11:25:12;10.20;99.90
51011;DHT22;37038;50.182;8.624;2024-02-26T11:28:54;10.80;55.40
51011;DHT22;37038;50.182;8.624;2024-02-26T11:32:01;11.70;1.00
51011;DHT22;37038;50.182;8.624;2024-02-26T11:38:53;13.90;1.00
51011;DHT22;37038;50.182;8.624;2024-02-26T11:42:23;12.60;1.00
51011;DHT22;37038;50.182;8.624;2024-02-26T11:50:40;12.20;7.40
51011;DHT22;37038;50.182;8.624;2024-02-26T12:38:52;13.40;1.00
51011;DHT22;37038;50.182;8.624;2024-02-26T12:42:13;14.00;1.00
51011;DHT22;37038;50.182;8.624;2024-02-26T12:45:59;14.20;99.90
51011;DHT22;37038;50.182;8.624;2024-02-26T12:49:56;13.20;1.00
51011;DHT22;37038;50.182;8.624;2024-02-26T12:53:41;12.70;1.00
51011;DHT22;37038;50.182;8.624;2024-02-26T13:07:43;13.40;1.00
51011;DHT22;37038;50.182;8.624;2024-02-26T13:11:12;14.00;99.90
51011;DHT22;37038;50.182;8.624;2024-02-26T13:18:47;13.00;99.90
51011;DHT22;37038;50.182;8.624;2024-02-26T13:22:08;13.10;1.00
51011;DHT22;37038;50.182;8.624;2024-02-26T13:25:18;12.40;1.00
51011;DHT22;37038;50.182;8.624;2024-02-26T13:28:22;12.10;1.00
51011;DHT22;37038;50.182;8.624;2024-02-26T13:31:56;12.40;1.00
51011;DHT22;37038;50.182;8.624;2024-02-26T13:35:27;12.40;1.00
51011;DHT22;37038;50.182;8.624;2024-02-26T13:39:21;12.80;1.00
51011;DHT22;37038;50.182;8.624;2024-02-26T13:42:39;13.20;1.00
51011;DHT22;37038;50.182;8.624;2024-02-26T13:46:08;13.90;1.00
51011;DHT22;37038;50.182;8.624;2024-02-26T13:49:37;14.60;99.90
51011;DHT22;37038;50.182;8.624;2024-02-26T13:53:15;14.80;1.00
51011;DHT22;37038;50.182;8.624;2024-02-26T13:56:14;14.40;1.00
51011;DHT22;37038;50.182;8.624;2024-02-26T13:59:16;13.80;1.00
51011;DHT22;37038;50.182;8.624;2024-02-26T14:02:43;14.70;99.90
51011;DHT22;37038;50.182;8.624;2024-02-26T14:05:56;15.30;99.90
51011;DHT22;37038;50.182;8.624;2024-02-26T14:09:10;15.10;99.90
51011;DHT22;37038;50.182;8.624;2024-02-26T14:12:24;15.10;99.90
51011;DHT22;37038;50.182;8.624;2024-02-26T14:15:16;14.30;1.00
51011;DHT22;37038;50.182;8.624;2024-02-26T14:18:33;13.50;99.90
51011;DHT22;37038;50.182;8.624;2024-02-26T14:21:31;13.20;1.00
51011;DHT22;37038;50.182;8.624;2024-02-26T14:24:27;13.20;1.00
51011;DHT22;37038;50.182;8.624;2024-02-26T14:27:23;12.90;1.00
51011;DHT22;37038;50.182;8.624;2024-02-26T14:30:19;12.70;1.00
51011;DHT22;37038;50.182;8.624;2024-02-26T14:33:19;12.30;1.00
51011;DHT22;37038;50.182;8.624;2024-02-26T14:36:17;12.10;1.00
51011;DHT22;37038;50.182;8.624;2024-02-26T14:39:23;12.50;1.00
51011;DHT22;37038;50.182;8.624;2024-02-26T14:42:21;12.30;1.00
51011;DHT22;37038;50.182;8.624;2024-02-26T14:45:38;12.60;1.00
51011;DHT22;37038;50.182;8.624;2024-02-26T14:48:44;12.40;1.00
51011;DHT22;37038;50.182;8.624;2024-02-26T14:51:37;13.90;1.00
51011;DHT22;37038;50.182;8.624;2024-02-26T14:54:41;14.60;1.00
51011;DHT22;37038;50.182;8.624;2024-02-26T15:01:23;13.70;99.90
51011;DHT22;37038;50.182;8.624;2024-02-26T15:04:25;13.80;99.90
51011;DHT22;37038;50.182;8.624;2024-02-26T15:07:33;14.20;99.90
51011;DHT22;37038;50.182;8.624;2024-02-26T15:10:46;13.50;99.90
51011;DHT22;37038;50.182;8.624;2024-02-26T15:17:00;12.50;99.90
51011;DHT22;37038;50.182;8.624;2024-02-26T15:20:06;12.60;99.90
51011;DHT22;37038;50.182;8.624;2024-02-26T15:23:36;12.70;99.90
51011;DHT22;37038;50.182;8.624;2024-02-26T15:32:39;12.80;99.90
51011;DHT22;37038;50.182;8.624;2024-02-26T15:36:07;12.80;99.90
51011;DHT22;37038;50.182;8.624;2024-02-26T15:38:58;13.10;99.90
51011;DHT22;37038;50.182;8.624;2024-02-26T15:42:12;13.50;99.90
51011;DHT22;37038;50.182;8.624;2024-02-26T15:57:06;12.70;99.90
51011;DHT22;37038;50.182;8.624;2024-02-26T16:04:27;12.10;99.90
51011;DHT22;37038;50.182;8.624;2024-02-26T16:07:49;11.70;99.90
51011;DHT22;37038;50.182;8.624;2024-02-26T16:10:44;11.80;1.00
51011;DHT22;37038;50.182;8.624;2024-02-26T16:13:48;11.90;1.00
51011;DHT22;37038;50.182;8.624;2024-02-26T16:17:25;11.80;99.90
51011;DHT22;37038;50.182;8.624;2024-02-26T16:24:25;11.90;1.00
51011;DHT22;37038;50.182;8.624;2024-02-26T16:28:23;11.60;1.00
51011;DHT22;37038;50.182;8.624;2024-02-26T16:31:39;11.40;99.90
51011;DHT22;37038;50.182;8.624;2024-02-26T16:34:54;11.30;99.90
51011;DHT22;37038;50.182;8.624;2024-02-26T16:38:20;11.20;1.00
51011;DHT22;37038;50.182;8.624;2024-02-26T16:45:51;10.70;99.90
51011;DHT22;37038;50.182;8.624;2024-02-26T16:53:05;10.80;1.00
